Time;durP1;ratioP1;P1;durP2;ratioP2;P2;SDS_P1;SDS_P2;PMS_P1;PMS_P2;Temp;Humidity;BMP_temperature;BMP_pressure;BME280_temperature;BME280_humidity;BME280_pressure;Samples;Min_cycle;Max_cycle;Signal;HPM_P1;HPM_P2
2022/05/05 00:00:12;;;;;;;6.78;3.78;;;7.90;99.90;;;;;;5075525;28;20045;-75
2022/05/05 00:02:38;;;;;;;6.22;3.92;;;7.80;99.90;;;;;;5043228;28;20425;-75
2022/05/05 00:05:05;;;;;;;7.90;3.75;;;7.80;99.90;;;;;;5041810;28;20083;-75
2022/05/05 00:07:31;;;;;;;7.78;3.90;;;7.80;99.90;;;;;;5076298;28;20040;-75
2022/05/05 00:09:57;;;;;;;6.70;4.10;;;7.80;99.90;;;;;;5058639;28;20056;-75
2022/05/05 00:15:08;;;;;;;5.97;3.20;;;7.70;99.90;;;;;;5076895;28;20053;-74
2022/05/05 00:17:34;;;;;;;6.53;3.70;;;7.70;99.90;;;;;;5058627;28;20037;-75
2022/05/05 00:20:00;;;;;;;8.32;4.03;;;7.70;99.90;;;;;;5076310;28;20048;-75
2022/05/05 00:22:26;;;;;;;6.28;4.38;;;7.60;99.90;;;;;;5057795;28;20051;-75
2022/05/05 00:24:52;;;;;;;8.45;3.97;;;7.60;99.90;;;;;;5059091;28;20036;-75
2022/05/05 00:27:18;;;;;;;7.13;4.32;;;7.60;99.90;;;;;;5075935;28;20044;-75
2022/05/05 00:29:44;;;;;;;7.00;4.00;;;7.50;99.90;;;;;;5075400;28;20047;-75
2022/05/05 00:32:11;;;;;;;9.02;4.15;;;7.50;99.90;;;;;;5076275;28;20063;-75
2022/05/05 00:34:37;;;;;;;9.85;4.32;;;7.50;99.90;;;;;;5058373;28;20033;-75
2022/05/05 00:37:03;;;;;;;6.97;4.07;;;7.50;99.90;;;;;;5059829;28;20051;-75
2022/05/05 00:39:29;;;;;;;8.27;4.55;;;7.40;99.90;;;;;;5043535;28;20044;-75
2022/05/05 00:41:56;;;;;;;7.00;3.90;;;7.20;99.90;;;;;;5063011;28;20532;-75
2022/05/05 00:44:22;;;;;;;10.32;5.22;;;7.20;99.90;;;;;;5063000;28;20052;-75
2022/05/05 00:46:51;;;;;;;8.02;4.20;;;7.20;99.90;;;;;;5062375;28;20481;-76
2022/05/05 00:49:18;;;;;;;9.43;4.05;;;7.90;99.90;;;;;;5080140;28;20528;-75
2022/05/05 00:51:44;;;;;;;8.93;4.30;;;7.20;99.90;;;;;;5061012;28;20044;-75
2022/05/05 00:54:10;;;;;;;5.63;3.88;;;7.20;99.90;;;;;;5079939;28;20055;-75
2022/05/05 00:56:37;;;;;;;8.15;3.80;;;7.10;99.90;;;;;;5061811;28;20040;-75
2022/05/05 00:59:05;;;;;;;9.13;3.58;;;7.10;99.90;;;;;;5079348;28;20051;-75
2022/05/05 01:01:31;;;;;;;9.23;3.80;;;7.10;99.90;;;;;;5055122;28;20047;-75
2022/05/05 01:03:57;;;;;;;8.77;3.90;;;7.00;99.90;;;;;;5078850;28;20045;-75
2022/05/05 01:06:23;;;;;;;6.45;3.35;;;6.90;99.90;;;;;;5079666;28;20048;-75
2022/05/05 01:08:49;;;;;;;8.23;4.05;;;6.90;99.90;;;;;;5061817;28;20055;-75
2022/05/05 01:11:14;;;;;;;5.97;4.25;;;6.80;99.90;;;;;;5062898;28;20062;-75
2022/05/05 01:13:42;;;;;;;6.00;3.85;;;6.90;99.90;;;;;;5078120;28;20155;-75
2022/05/05 01:16:09;;;;;;;7.63;4.97;;;7.00;99.90;;;;;;5078831;28;20048;-75
2022/05/05 01:18:35;;;;;;;8.02;4.30;;;7.10;99.90;;;;;;5078677;28;20064;-75
2022/05/05 01:21:01;;;;;;;9.57;4.95;;;7.10;99.90;;;;;;5078397;28;20056;-75
2022/05/05 01:23:26;;;;;;;6.32;4.07;;;7.20;99.90;;;;;;5078654;28;20048;-75
2022/05/05 01:28:44;;;;;;;6.70;4.95;;;7.10;99.90;;;;;;5079297;28;20052;-76
2022/05/05 01:31:10;;;;;;;7.68;4.80;;;7.10;99.90;;;;;;5061272;28;20075;-75
2022/05/05 01:33:36;;;;;;;9.07;4.18;;;7.10;99.90;;;;;;5078700;28;20048;-75
2022/05/05 01:36:02;;;;;;;8.45;4.63;;;7.10;99.90;;;;;;5062595;28;20044;-75
2022/05/05 01:38:36;;;;;;;8.60;5.28;;;7.10;99.90;;;;;;5077885;28;20074;-76
2022/05/05 01:41:04;;;;;;;7.88;5.20;;;7.10;99.90;;;;;;5058134;28;20052;-76
2022/05/05 01:43:29;;;;;;;7.00;4.80;;;7.10;99.90;;;;;;5069311;28;20045;-76
2022/05/05 01:45:55;;;;;;;9.48;4.88;;;7.00;99.90;;;;;;5078855;28;20151;-76
2022/05/05 01:48:21;;;;;;;7.65;4.75;;;7.00;99.90;;;;;;5061033;28;20044;-76
2022/05/05 01:50:48;;;;;;;8.43;5.40;;;7.00;99.90;;;;;;5060770;28;20051;-75
2022/05/05 01:53:14;;;;;;;9.60;5.75;;;7.00;99.90;;;;;;5042322;28;20503;-76
2022/05/05 01:55:40;;;;;;;11.82;5.80;;;6.90;99.90;;;;;;5056564;28;20041;-75
2022/05/05 01:58:06;;;;;;;8.55;5.35;;;6.90;99.90;;;;;;5062022;28;20557;-75
2022/05/05 02:00:33;;;;;;;10.30;5.25;;;6.90;99.90;;;;;;5077326;28;20047;-75
2022/05/05 02:02:59;;;;;;;9.25;5.72;;;6.90;99.90;;;;;;5078498;28;20057;-75
2022/05/05 02:05:25;;;;;;;7.43;4.28;;;6.90;99.90;;;;;;5077904;28;20045;-75
2022/05/05 02:07:51;;;;;;;14.00;4.57;;;6.90;99.90;;;;;;5061448;28;20423;-76
2022/05/05 02:10:20;;;;;;;8.05;5.30;;;6.80;99.90;;;;;;5079655;28;20098;-75
2022/05/05 02:12:46;;;;;;;6.43;4.32;;;6.70;99.90;;;;;;5076562;28;20059;-75
2022/05/05 02:15:14;;;;;;;7.95;4.78;;;6.60;99.90;;;;;;5078205;28;20053;-75
2022/05/05 02:17:41;;;;;;;6.30;3.78;;;6.40;99.90;;;;;;5076952;28;20064;-75
2022/05/05 02:20:12;;;;;;;5.53;4.50;;;6.30;99.90;;;;;;5078053;28;20132;-75
2022/05/05 02:22:39;;;;;;;8.32;4.38;;;6.30;99.90;;;;;;5077058;28;20488;-75
2022/05/05 02:25:05;;;;;;;7.30;4.10;;;6.30;99.90;;;;;;5077328;28;20099;-75
2022/05/05 02:27:51;;;;;;;6.43;4.60;;;6.30;99.90;;;;;;5077889;28;20045;-75
2022/05/05 02:30:18;;;;;;;8.38;4.30;;;6.30;99.90;;;;;;5076057;28;20050;-76
2022/05/05 02:32:44;;;;;;;10.13;4.90;;;6.20;99.90;;;;;;5061213;28;20040;-75
2022/05/05 02:35:10;;;;;;;8.43;4.68;;;6.20;99.90;;;;;;5060016;28;20098;-75
2022/05/05 02:40:20;;;;;;;7.72;4.65;;;6.00;99.90;;;;;;5077814;28;20060;-75
2022/05/05 02:42:45;;;;;;;6.03;3.63;;;6.00;99.90;;;;;;5059742;28;20053;-75
2022/05/05 02:45:11;;;;;;;6.72;4.00;;;6.00;99.90;;;;;;5061482;28;20404;-75
2022/05/05 02:47:37;;;;;;;6.40;4.10;;;6.00;99.90;;;;;;5076410;28;20056;-75
2022/05/05 02:50:03;;;;;;;4.53;3.60;;;5.90;99.90;;;;;;5077319;28;20048;-75
2022/05/05 02:52:28;;;;;;;6.30;3.53;;;5.80;99.90;;;;;;5075756;28;20054;-75
2022/05/05 02:54:55;;;;;;;7.22;4.38;;;5.80;99.90;;;;;;5043803;28;20049;-75
2022/05/05 02:57:23;;;;;;;6.80;4.35;;;5.80;99.90;;;;;;5060558;28;20420;-75
2022/05/05 02:59:49;;;;;;;7.05;4.53;;;5.70;99.90;;;;;;5076161;28;20044;-75
2022/05/05 03:02:16;;;;;;;9.40;5.07;;;5.70;99.90;;;;;;5077392;28;20064;-75
2022/05/05 03:04:41;;;;;;;7.68;4.63;;;5.70;99.90;;;;;;5075840;28;20048;-76
2022/05/05 03:07:07;;;;;;;11.40;4.75;;;5.70;99.90;;;;;;5077218;28;20064;-75
2022/05/05 03:09:33;;;;;;;7.63;4.82;;;5.70;99.90;;;;;;5059293;28;20051;-75
2022/05/05 03:11:59;;;;;;;10.02;5.10;;;5.70;99.90;;;;;;5060011;28;20112;-75
2022/05/05 03:14:25;;;;;;;10.43;4.93;;;5.70;99.90;;;;;;5059448;28;20139;-75
2022/05/05 03:16:50;;;;;;;9.18;5.32;;;5.70;99.90;;;;;;5076690;28;20079;-76
2022/05/05 03:19:16;;;;;;;9.25;5.38;;;5.80;99.90;;;;;;5077491;28;20055;-75
2022/05/05 03:21:42;;;;;;;5.80;4.10;;;5.80;99.90;;;;;;5042918;28;20032;-76
2022/05/05 03:24:08;;;;;;;8.40;4.82;;;5.80;99.90;;;;;;5076896;28;20087;-76
2022/05/05 03:26:33;;;;;;;8.25;5.15;;;5.80;99.90;;;;;;5057046;28;20047;-75
2022/05/05 03:28:59;;;;;;;7.95;4.60;;;5.80;99.90;;;;;;5073406;28;20048;-76
2022/05/05 03:31:25;;;;;;;7.10;5.05;;;5.80;99.90;;;;;;5039415;28;20040;-76
2022/05/05 03:33:53;;;;;;;7.38;4.57;;;5.70;99.90;;;;;;5056316;28;20032;-75
2022/05/05 03:36:19;;;;;;;8.25;5.57;;;5.70;99.90;;;;;;5058889;28;20137;-76
2022/05/05 03:38:44;;;;;;;9.63;5.10;;;5.60;99.90;;;;;;5059238;28;20048;-75
2022/05/05 03:41:10;;;;;;;8.35;5.43;;;5.50;99.90;;;;;;5076659;28;20045;-75
2022/05/05 03:43:36;;;;;;;10.05;5.40;;;5.50;99.90;;;;;;5058637;28;20052;-75
2022/05/05 03:46:02;;;;;;;10.13;4.90;;;5.40;99.90;;;;;;5076804;28;20048;-76
2022/05/05 03:48:27;;;;;;;9.18;4.40;;;5.40;99.90;;;;;;5059413;28;20132;-76
2022/05/05 03:50:53;;;;;;;8.98;4.72;;;5.30;99.90;;;;;;5059617;28;20086;-75
2022/05/05 03:53:19;;;;;;;8.48;4.47;;;5.50;99.90;;;;;;5043165;28;20036;-75
2022/05/05 03:55:45;;;;;;;6.90;4.30;;;5.00;99.90;;;;;;5075435;28;20041;-75
2022/05/05 03:58:11;;;;;;;8.65;4.47;;;5.00;99.90;;;;;;5076548;28;20141;-76
2022/05/05 04:00:36;;;;;;;7.55;4.72;;;4.90;99.90;;;;;;5058647;28;20024;-76
2022/05/05 04:05:48;;;;;;;8.50;4.45;;;5.00;99.90;;;;;;5076673;28;20048;-75
2022/05/05 04:08:14;;;;;;;14.13;7.53;;;5.00;99.90;;;;;;5075906;28;20059;-75
2022/05/05 04:10:40;;;;;;;10.93;6.28;;;5.10;99.90;;;;;;5043317;28;20052;-75
2022/05/05 04:13:05;;;;;;;10.82;7.45;;;5.30;99.90;;;;;;5041623;28;20032;-75
2022/05/05 04:15:32;;;;;;;12.02;6.35;;;5.30;99.90;;;;;;5079756;28;20052;-75
2022/05/05 04:17:57;;;;;;;10.55;6.40;;;5.40;99.90;;;;;;5062599;28;20178;-75
2022/05/05 04:20:23;;;;;;;9.27;6.00;;;5.50;99.90;;;;;;5073865;28;20033;-75
2022/05/05 04:22:49;;;;;;;10.88;5.85;;;5.60;99.90;;;;;;5079450;28;20055;-75
2022/05/05 04:25:16;;;;;;;10.23;5.07;;;5.60;99.90;;;;;;5062627;28;20094;-76
2022/05/05 04:27:43;;;;;;;12.20;5.60;;;5.60;99.90;;;;;;5062491;28;20668;-75
2022/05/05 04:30:09;;;;;;;12.75;4.93;;;5.50;99.90;;;;;;5079267;28;20032;-75
2022/05/05 04:32:35;;;;;;;9.77;6.07;;;5.50;99.90;;;;;;5063359;28;20056;-75
2022/05/05 04:35:02;;;;;;;10.95;6.45;;;5.50;99.90;;;;;;5062450;28;20491;-75
2022/05/05 04:37:28;;;;;;;12.38;6.82;;;5.60;99.90;;;;;;5063527;28;20070;-75
2022/05/05 04:39:54;;;;;;;10.90;5.97;;;5.70;99.90;;;;;;5079613;28;20048;-75
2022/05/05 04:42:20;;;;;;;12.00;6.93;;;5.80;99.90;;;;;;5079322;28;20104;-75
2022/05/05 04:44:45;;;;;;;10.48;6.47;;;5.90;99.90;;;;;;5046995;28;20095;-75
2022/05/05 04:47:11;;;;;;;9.85;6.05;;;6.00;99.90;;;;;;5062136;28;20128;-76
2022/05/05 04:49:37;;;;;;;10.70;6.03;;;6.10;99.90;;;;;;5063562;28;20179;-76
2022/05/05 04:52:04;;;;;;;12.20;7.45;;;6.20;99.90;;;;;;5078175;28;20044;-76
2022/05/05 04:54:29;;;;;;;12.43;7.57;;;6.20;99.90;;;;;;5079885;28;20040;-76
2022/05/05 04:56:55;;;;;;;12.82;6.90;;;6.30;99.90;;;;;;5079156;28;20151;-76
2022/05/05 04:59:21;;;;;;;13.02;7.47;;;6.40;99.90;;;;;;5078810;28;20100;-76
2022/05/05 05:01:47;;;;;;;11.77;7.40;;;6.50;99.90;;;;;;5079729;28;20058;-76
2022/05/05 05:04:13;;;;;;;10.68;7.32;;;6.60;99.90;;;;;;5078415;28;20094;-76
2022/05/05 05:06:39;;;;;;;12.88;7.28;;;6.70;99.90;;;;;;5079951;28;20043;-75
2022/05/05 05:09:05;;;;;;;11.70;7.10;;;6.80;99.90;;;;;;5078401;28;20044;-75
2022/05/05 05:11:31;;;;;;;12.60;7.32;;;6.80;99.90;;;;;;5079471;28;20124;-75
2022/05/05 05:13:57;;;;;;;10.52;6.82;;;6.90;99.90;;;;;;5078272;28;20079;-75
2022/05/05 05:16:23;;;;;;;12.82;7.40;;;7.00;99.90;;;;;;5062172;28;20092;-75
2022/05/05 05:18:50;;;;;;;10.63;7.40;;;7.00;99.90;;;;;;5062413;28;20048;-75
2022/05/05 05:21:15;;;;;;;12.02;7.60;;;7.10;99.90;;;;;;5061690;28;20463;-75
2022/05/05 05:23:41;;;;;;;13.93;7.75;;;7.10;99.90;;;;;;5045894;28;20036;-75
2022/05/05 05:26:07;;;;;;;14.02;7.78;;;7.30;99.90;;;;;;5061367;28;20079;-76
2022/05/05 05:28:33;;;;;;;15.63;8.90;;;7.40;99.90;;;;;;5046118;28;20542;-76
2022/05/05 05:30:58;;;;;;;14.20;8.02;;;7.40;99.90;;;;;;5061302;28;20416;-75
2022/05/05 05:33:24;;;;;;;10.88;7.35;;;7.50;99.90;;;;;;5062065;28;20127;-75
2022/05/05 05:35:50;;;;;;;12.23;7.28;;;7.50;99.90;;;;;;5078523;28;20044;-76
2022/05/05 05:38:19;;;;;;;16.05;8.27;;;7.60;99.90;;;;;;5078611;28;20400;-76
2022/05/05 05:40:44;;;;;;;15.15;9.20;;;7.70;99.90;;;;;;5078805;28;20048;-76
2022/05/05 05:43:10;;;;;;;13.38;8.48;;;7.70;99.90;;;;;;5077565;28;20049;-76
2022/05/05 05:45:36;;;;;;;12.05;7.22;;;7.80;99.90;;;;;;5079170;28;20043;-75
2022/05/05 05:48:02;;;;;;;13.93;8.45;;;7.90;99.90;;;;;;5060872;28;20052;-75
2022/05/05 05:50:30;;;;;;;10.10;7.55;;;8.00;99.90;;;;;;5061597;28;20108;-75
2022/05/05 05:52:57;;;;;;;10.07;6.82;;;8.10;99.90;;;;;;5061816;28;20093;-76
2022/05/05 05:55:23;;;;;;;12.05;7.50;;;8.70;99.90;;;;;;5061379;28;20040;-76
2022/05/05 05:57:48;;;;;;;13.80;8.55;;;8.30;99.90;;;;;;5078925;28;20047;-76
2022/05/05 06:00:14;;;;;;;14.57;8.13;;;8.40;99.90;;;;;;5060701;28;20052;-76
2022/05/05 06:05:25;;;;;;;13.10;7.15;;;8.80;99.90;;;;;;5077644;28;20416;-76
2022/05/05 06:07:51;;;;;;;11.80;8.13;;;8.80;99.90;;;;;;5061290;28;20087;-76
2022/05/05 06:10:18;;;;;;;14.25;8.90;;;8.90;99.90;;;;;;5061917;28;20037;-76
2022/05/05 06:12:44;;;;;;;11.13;7.05;;;9.00;99.90;;;;;;5077030;28;20063;-76
2022/05/05 06:15:10;;;;;;;13.90;7.82;;;9.10;99.90;;;;;;5061541;28;20044;-76
2022/05/05 06:17:36;;;;;;;14.38;7.68;;;9.30;99.90;;;;;;5053973;28;20079;-77
2022/05/05 06:20:02;;;;;;;10.57;7.40;;;9.30;99.90;;;;;;5077931;28;20044;-76
2022/05/05 06:22:28;;;;;;;12.98;8.75;;;9.40;99.90;;;;;;5077031;28;20087;-76
2022/05/05 06:24:54;;;;;;;12.85;8.52;;;9.60;99.90;;;;;;5060655;28;20481;-76
2022/05/05 06:27:19;;;;;;;11.75;8.23;;;9.70;99.90;;;;;;5078242;28;20138;-76
2022/05/05 06:29:45;;;;;;;14.50;8.13;;;9.80;99.90;;;;;;5060277;28;20044;-76
2022/05/05 06:32:11;;;;;;;15.13;8.98;;;9.90;99.90;;;;;;5077581;28;20052;-80
2022/05/05 06:34:37;;;;;;;12.02;7.47;;;10.10;99.90;;;;;;5076698;28;20040;-81
2022/05/05 06:37:05;;;;;;;11.70;8.05;;;10.20;99.90;;;;;;5077102;28;20045;-81
2022/05/05 06:39:31;;;;;;;13.20;7.70;;;10.30;99.90;;;;;;5059624;28;20041;-81
2022/05/05 06:41:57;;;;;;;10.60;7.25;;;10.40;99.90;;;;;;5077839;28;20098;-81
2022/05/05 06:44:22;;;;;;;9.73;7.20;;;10.50;99.90;;;;;;5077455;28;20051;-80
2022/05/05 06:46:49;;;;;;;13.38;7.55;;;10.70;99.90;;;;;;5059644;28;20037;-81
2022/05/05 06:49:17;;;;;;;11.27;7.43;;;10.80;99.90;;;;;;5077459;28;20049;-81
2022/05/05 06:51:43;;;;;;;11.07;7.80;;;10.90;99.90;;;;;;5060025;28;20051;-82
2022/05/05 06:54:09;;;;;;;16.45;7.38;;;10.90;99.90;;;;;;5060822;28;20124;-81
2022/05/05 06:56:34;;;;;;;10.75;6.70;;;11.00;99.90;;;;;;5076291;28;20852;-81
2022/05/05 06:59:00;;;;;;;9.25;6.28;;;11.20;99.90;;;;;;5060786;28;20044;-81
2022/05/05 07:06:54;;;;;;;9.30;5.70;;;11.50;99.90;;;;;;5077339;28;20076;-81
2022/05/05 07:12:04;;;;;;;11.82;6.28;;;11.70;99.90;;;;;;5062748;28;20127;-81
2022/05/05 07:14:31;;;;;;;10.95;5.68;;;11.80;99.90;;;;;;5060506;28;20121;-80
2022/05/05 07:16:57;;;;;;;9.10;5.10;;;11.90;99.90;;;;;;5059443;28;20055;-81
2022/05/05 07:19:23;;;;;;;9.50;5.13;;;12.00;99.90;;;;;;5077482;28;20094;-80
2022/05/05 07:21:49;;;;;;;9.27;5.10;;;12.20;99.90;;;;;;5077323;28;20044;-82
2022/05/05 07:24:14;;;;;;;8.68;5.13;;;12.30;99.90;;;;;;5072259;28;20052;-81
2022/05/05 07:26:40;;;;;;;9.48;4.72;;;12.40;99.90;;;;;;5069946;28;20051;-81
2022/05/05 07:29:06;;;;;;;9.07;4.55;;;12.50;99.90;;;;;;5082672;28;20119;-80
2022/05/05 07:31:31;;;;;;;11.30;5.90;;;12.60;99.90;;;;;;5069377;28;20041;-80
2022/05/05 07:33:57;;;;;;;8.02;4.78;;;12.70;99.90;;;;;;5040869;28;20555;-81
2022/05/05 07:36:24;;;;;;;9.32;4.00;;;12.80;99.90;;;;;;5084070;28;20056;-80
2022/05/05 07:38:49;;;;;;;7.65;4.13;;;13.00;99.90;;;;;;5051191;28;20124;-81
2022/05/05 07:41:15;;;;;;;6.43;4.20;;;13.20;99.90;;;;;;5082571;28;20064;-80
2022/05/05 07:43:41;;;;;;;6.47;3.55;;;13.40;99.90;;;;;;5063092;28;20044;-80
2022/05/05 07:46:07;;;;;;;8.43;4.03;;;13.60;99.90;;;;;;5079551;28;20032;-81
2022/05/05 07:48:32;;;;;;;8.57;3.95;;;13.20;99.90;;;;;;5056366;28;20079;-82
2022/05/05 07:50:58;;;;;;;6.63;4.00;;;13.90;99.90;;;;;;5075606;28;20052;-82
2022/05/05 07:53:24;;;;;;;8.65;3.83;;;13.90;99.90;;;;;;5089762;28;20059;-80
2022/05/05 07:55:50;;;;;;;4.97;3.75;;;13.90;99.90;;;;;;5045049;28;20053;-81
2022/05/05 07:58:16;;;;;;;9.35;3.97;;;13.90;99.90;;;;;;5068746;28;20595;-80
2022/05/05 08:00:41;;;;;;;6.57;3.42;;;13.90;99.90;;;;;;5074524;28;20036;-82
2022/05/05 08:03:07;;;;;;;5.38;3.40;;;13.90;99.90;;;;;;5077083;28;20063;-82
2022/05/05 08:05:33;;;;;;;7.18;3.33;;;14.00;99.90;;;;;;5051657;28;20036;-80
2022/05/05 08:07:59;;;;;;;7.32;3.38;;;14.00;99.90;;;;;;5075095;28;20044;-81
2022/05/05 08:10:28;;;;;;;6.97;3.40;;;14.00;99.90;;;;;;5076364;28;20044;-79
2022/05/05 08:12:54;;;;;;;5.93;3.53;;;14.00;99.90;;;;;;5055026;28;20049;-80
2022/05/05 08:15:20;;;;;;;6.53;3.55;;;14.00;99.90;;;;;;5079985;28;20072;-82
2022/05/05 08:17:47;;;;;;;5.60;3.50;;;14.10;99.90;;;;;;5081033;28;20108;-81
2022/05/05 08:20:15;;;;;;;7.75;3.72;;;14.20;99.90;;;;;;5073073;28;20045;-80
2022/05/05 08:22:41;;;;;;;7.35;4.13;;;14.20;99.90;;;;;;5079857;28;20044;-80
2022/05/05 08:30:37;;;;;;;6.90;3.38;;;14.30;99.90;;;;;;5064283;28;20133;-81
2022/05/05 08:33:04;;;;;;;6.18;3.63;;;14.30;99.90;;;;;;5096116;28;20157;-81
2022/05/05 08:35:31;;;;;;;9.00;4.15;;;14.30;99.90;;;;;;5050401;28;20047;-81
2022/05/05 08:37:57;;;;;;;5.25;3.50;;;14.40;99.90;;;;;;5048838;28;20443;-82
2022/05/05 08:40:25;;;;;;;6.85;3.40;;;14.40;99.90;;;;;;5085497;28;20043;-81
2022/05/05 08:42:51;;;;;;;6.13;3.88;;;14.50;99.90;;;;;;5083802;28;20068;-84
2022/05/05 08:45:17;;;;;;;6.38;3.83;;;14.50;99.90;;;;;;5066146;28;20058;-82
2022/05/05 08:47:45;;;;;;;7.05;3.72;;;14.60;99.90;;;;;;5047939;28;20090;-81
2022/05/05 08:50:12;;;;;;;6.50;3.78;;;14.60;99.90;;;;;;5075868;28;20416;-80
2022/05/05 08:53:05;;;;;;;7.88;3.75;;;14.70;99.90;;;;;;5077658;28;20066;-81
2022/05/05 08:55:31;;;;;;;7.20;3.63;;;14.70;99.90;;;;;;5059060;28;20128;-82
2022/05/05 08:57:58;;;;;;;7.65;4.28;;;14.70;99.90;;;;;;5081713;28;20066;-81
2022/05/05 09:00:27;;;;;;;7.22;4.28;;;14.80;99.90;;;;;;5092448;28;20056;-81
2022/05/05 09:03:00;;;;;;;7.50;4.07;;;14.80;99.90;;;;;;5069861;28;20046;-82
2022/05/05 09:05:44;;;;;;;6.18;3.90;;;14.90;99.90;;;;;;5070108;28;20096;-82
2022/05/05 09:08:33;;;;;;;7.45;3.85;;;15.00;99.90;;;;;;5082199;28;20109;-82
2022/05/05 09:11:06;;;;;;;6.70;4.18;;;15.10;99.90;;;;;;5073780;28;20124;-81
2022/05/05 09:13:34;;;;;;;7.18;4.18;;;15.20;99.90;;;;;;5090593;28;20039;-82
2022/05/05 09:16:03;;;;;;;6.50;4.20;;;15.30;99.90;;;;;;5086861;28;20063;-81
2022/05/05 09:18:31;;;;;;;7.18;4.45;;;15.40;99.90;;;;;;5079208;28;20052;-81
2022/05/05 09:21:05;;;;;;;8.27;4.00;;;15.40;99.90;;;;;;5086872;28;20053;-82
2022/05/05 09:24:34;;;;;;;7.50;4.07;;;15.50;99.90;;;;;;5080791;28;20037;-80
2022/05/05 09:26:28;;;;;;;8.25;3.95;;;15.70;99.90;;;;;;5081566;28;20083;-81
2022/05/05 09:28:55;;;;;;;6.30;4.00;;;15.80;99.90;;;;;;5061742;28;20048;-81
2022/05/05 09:31:24;;;;;;;7.88;4.13;;;15.80;99.90;;;;;;5068878;28;20049;-81
2022/05/05 09:33:50;;;;;;;7.28;3.78;;;15.80;99.90;;;;;;5078072;28;20048;-80
2022/05/05 09:36:24;;;;;;;6.18;3.97;;;15.80;99.90;;;;;;5078688;28;20043;-80
2022/05/05 09:38:57;;;;;;;6.60;4.07;;;15.90;99.90;;;;;;5071089;28;20049;-81
2022/05/05 09:41:34;;;;;;;6.72;4.20;;;15.90;99.90;;;;;;5081744;28;20125;-81
2022/05/05 09:44:15;;;;;;;8.07;4.25;;;16.00;99.90;;;;;;5089812;28;20175;-81
2022/05/05 09:46:43;;;;;;;7.03;4.00;;;16.00;99.90;;;;;;5067336;28;20044;-80
2022/05/05 09:49:12;;;;;;;6.53;4.35;;;16.10;99.90;;;;;;5095209;28;20108;-81
2022/05/05 09:57:41;;;;;;;5.13;3.63;;;16.40;99.90;;;;;;5088503;28;20052;-81
2022/05/05 10:00:43;;;;;;;6.13;4.10;;;16.50;99.90;;;;;;5078061;28;20094;-81
2022/05/05 10:05:56;;;;;;;5.88;3.42;;;16.60;99.90;;;;;;5079032;28;20092;-80
2022/05/05 10:08:54;;;;;;;6.40;3.53;;;16.80;99.90;;;;;;5046968;28;20058;-80
2022/05/05 10:11:22;;;;;;;9.65;3.63;;;16.90;99.90;;;;;;5064235;28;20099;-81
2022/05/05 10:13:49;;;;;;;7.32;3.80;;;17.00;99.90;;;;;;5082657;28;20051;-81
2022/05/05 10:16:16;;;;;;;8.23;4.00;;;17.10;99.90;;;;;;5086063;28;20610;-83
2022/05/05 10:18:42;;;;;;;6.32;3.65;;;17.10;99.90;;;;;;5080437;28;20048;-83
2022/05/05 10:21:13;;;;;;;7.63;4.32;;;17.10;99.90;;;;;;5082660;28;20049;-83
2022/05/05 10:24:09;;;;;;;10.95;4.30;;;17.00;99.90;;;;;;5064309;28;20048;-84
2022/05/05 10:26:35;;;;;;;6.32;3.97;;;16.90;99.90;;;;;;5077650;28;20064;-82
2022/05/05 10:29:02;;;;;;;8.32;4.35;;;16.80;99.90;;;;;;5060043;28;20076;-82
2022/05/05 10:31:30;;;;;;;5.75;4.03;;;16.80;99.90;;;;;;5054737;28;20056;-81
2022/05/05 10:34:07;;;;;;;8.68;4.28;;;16.90;99.90;;;;;;5076803;28;20044;-79
2022/05/05 10:36:35;;;;;;;6.68;3.90;;;17.00;99.90;;;;;;5086176;28;20054;-81
2022/05/05 10:39:22;;;;;;;8.48;4.32;;;17.10;99.90;;;;;;5080626;28;20062;-83
2022/05/05 10:41:51;;;;;;;9.95;4.80;;;17.20;99.90;;;;;;5081832;28;20052;-81
2022/05/05 10:44:16;;;;;;;9.13;4.55;;;17.20;99.90;;;;;;5052925;28;20036;-81
2022/05/05 10:46:57;;;;;;;9.35;4.95;;;17.20;99.90;;;;;;5076704;28;20044;-82
2022/05/05 10:49:39;;;;;;;8.25;4.78;;;17.30;99.90;;;;;;5077114;28;20048;-84
2022/05/05 10:52:11;;;;;;;9.68;5.47;;;17.30;99.90;;;;;;5076508;28;20073;-81
2022/05/05 10:54:42;;;;;;;8.45;4.45;;;17.40;99.90;;;;;;5086684;28;20043;-82
2022/05/05 10:57:26;;;;;;;5.68;3.95;;;17.50;99.90;;;;;;5090225;28;20162;-84
2022/05/05 11:00:10;;;;;;;8.52;4.57;;;17.50;99.90;;;;;;5078717;28;20052;-80
2022/05/05 11:02:38;;;;;;;8.80;4.97;;;17.60;99.90;;;;;;5083351;28;20040;-79
2022/05/05 11:05:27;;;;;;;7.32;4.50;;;17.70;99.90;;;;;;5082698;28;20408;-79
2022/05/05 11:07:54;;;;;;;6.30;4.35;;;17.80;99.90;;;;;;5066676;28;20041;-80
2022/05/05 11:10:48;;;;;;;9.18;5.00;;;17.80;99.90;;;;;;5080686;28;20061;-81
2022/05/05 11:13:42;;;;;;;6.00;4.50;;;18.00;99.90;;;;;;5073940;28;20489;-82
2022/05/05 11:22:14;;;;;;;8.23;4.30;;;18.10;99.90;;;;;;5086184;28;20091;-80
2022/05/05 11:24:45;;;;;;;7.45;4.40;;;18.10;99.90;;;;;;5066379;28;20749;-81
2022/05/05 11:27:17;;;;;;;7.57;3.90;;;18.30;99.90;;;;;;5076401;28;20047;-80
2022/05/05 11:29:55;;;;;;;6.38;3.97;;;18.50;99.90;;;;;;5084861;28;20070;-80
2022/05/05 11:32:27;;;;;;;6.43;3.65;;;18.60;99.90;;;;;;5069007;28;20049;-82
2022/05/05 11:34:53;;;;;;;4.63;3.10;;;18.60;99.90;;;;;;5070242;28;20065;-82
2022/05/05 11:37:19;;;;;;;5.88;3.30;;;18.70;99.90;;;;;;5072789;28;20528;-83
2022/05/05 11:39:50;;;;;;;7.13;3.42;;;18.70;99.90;;;;;;5066384;28;20046;-83
2022/05/05 11:42:16;;;;;;;5.55;3.33;;;18.70;99.90;;;;;;5053559;28;20039;-83
2022/05/05 11:44:46;;;;;;;5.43;2.80;;;18.70;99.90;;;;;;5068562;28;20079;-85
2022/05/05 11:47:14;;;;;;;6.30;3.75;;;18.80;99.90;;;;;;5055318;28;20052;-82
2022/05/05 11:49:48;;;;;;;7.20;3.25;;;18.70;99.90;;;;;;5085404;28;20044;-84
2022/05/05 11:52:25;;;;;;;6.07;2.90;;;18.70;99.90;;;;;;5075141;28;20051;-84
2022/05/05 11:54:53;;;;;;;4.40;2.97;;;18.70;99.90;;;;;;5072557;28;20059;-80
2022/05/05 11:57:38;;;;;;;4.93;2.97;;;18.60;99.90;;;;;;5078594;28;20029;-80
2022/05/05 12:02:52;;;;;;;5.57;3.10;;;18.70;99.90;;;;;;5076468;28;20049;-81
2022/05/05 12:05:20;;;;;;;4.55;3.13;;;18.70;99.90;;;;;;5058826;28;20230;-79
2022/05/05 12:07:47;;;;;;;6.20;3.22;;;18.70;99.90;;;;;;5062499;28;20493;-80
2022/05/05 12:10:16;;;;;;;6.22;2.95;;;18.50;99.90;;;;;;5072610;28;20044;-82
2022/05/05 12:12:45;;;;;;;4.65;2.83;;;18.40;99.90;;;;;;5057666;28;20089;-80
2022/05/05 12:15:11;;;;;;;5.43;2.83;;;18.40;99.90;;;;;;5065057;28;20052;-82
2022/05/05 12:17:57;;;;;;;4.60;2.72;;;18.70;99.90;;;;;;5071988;28;20059;-80
2022/05/05 12:20:23;;;;;;;5.38;2.97;;;18.90;99.90;;;;;;5083968;28;20075;-81
2022/05/05 12:22:54;;;;;;;6.22;3.33;;;19.00;99.90;;;;;;5086344;28;20095;-82
2022/05/05 12:25:20;;;;;;;5.10;3.42;;;19.10;99.90;;;;;;5082745;28;20186;-82
2022/05/05 12:28:05;;;;;;;6.97;3.53;;;19.10;99.90;;;;;;5047916;28;20052;-80
2022/05/05 12:30:33;;;;;;;5.25;2.97;;;19.10;99.90;;;;;;5090505;28;20047;-82
2022/05/05 12:32:59;;;;;;;5.88;4.10;;;19.30;99.90;;;;;;5086338;28;20142;-82
2022/05/05 12:35:29;;;;;;;7.18;3.50;;;19.40;99.90;;;;;;5065209;28;20438;-80
2022/05/05 12:37:57;;;;;;;5.30;3.75;;;19.40;99.90;;;;;;5072386;28;20048;-79
2022/05/05 12:40:22;;;;;;;5.45;3.35;;;19.40;99.90;;;;;;5047057;28;20430;-81
2022/05/05 12:42:49;;;;;;;6.38;3.40;;;19.30;99.90;;;;;;5064897;28;20045;-82
2022/05/05 12:45:38;;;;;;;6.03;3.80;;;19.30;99.90;;;;;;5079709;28;20055;-82
2022/05/05 12:48:06;;;;;;;5.45;3.95;;;19.30;99.90;;;;;;5078263;28;20492;-84
2022/05/05 12:50:37;;;;;;;6.32;3.72;;;19.30;99.90;;;;;;5090972;28;20048;-81
2022/05/05 13:01:46;;;;;;;7.25;4.00;;;18.70;99.90;;;;;;5083774;28;20810;-81
2022/05/05 13:04:15;;;;;;;6.43;3.42;;;18.70;99.90;;;;;;5091503;28;20044;-81
2022/05/05 13:06:42;;;;;;;6.07;3.47;;;18.70;99.90;;;;;;5086025;28;20047;-81
2022/05/05 13:09:09;;;;;;;5.90;3.40;;;18.80;99.90;;;;;;5054682;28;20585;-80
2022/05/05 13:11:36;;;;;;;5.25;3.33;;;18.80;99.90;;;;;;5077987;28;20050;-80
2022/05/05 13:14:02;;;;;;;5.78;3.17;;;19.00;99.90;;;;;;5065433;28;20082;-80
2022/05/05 13:16:29;;;;;;;5.30;3.30;;;19.10;99.90;;;;;;5077564;28;20116;-82
2022/05/05 13:18:57;;;;;;;7.57;3.50;;;19.00;99.90;;;;;;5055362;28;20052;-83
2022/05/05 13:21:23;;;;;;;5.85;3.00;;;19.00;99.90;;;;;;5098511;28;20044;-80
2022/05/05 13:23:49;;;;;;;5.05;2.63;;;19.00;99.90;;;;;;5083264;28;20404;-78
2022/05/05 13:26:15;;;;;;;6.63;2.92;;;19.10;99.90;;;;;;5061836;28;20124;-79
2022/05/05 13:28:41;;;;;;;4.88;3.03;;;19.20;99.90;;;;;;5088762;28;20060;-78
2022/05/05 13:31:07;;;;;;;6.50;3.30;;;19.10;99.90;;;;;;5078190;28;20059;-80
2022/05/05 13:33:33;;;;;;;4.90;2.80;;;19.10;99.90;;;;;;5086801;28;20040;-80
2022/05/05 13:36:00;;;;;;;3.78;2.42;;;19.10;99.90;;;;;;5083717;28;20068;-81
2022/05/05 13:38:27;;;;;;;6.20;3.25;;;19.00;99.90;;;;;;5077418;28;20054;-81
2022/05/05 13:40:53;;;;;;;5.65;3.00;;;19.00;99.90;;;;;;5078495;28;20052;-81
2022/05/05 13:43:19;;;;;;;5.10;2.70;;;18.90;99.90;;;;;;5087707;28;20047;-81
2022/05/05 13:45:44;;;;;;;5.30;2.72;;;18.70;99.90;;;;;;5045504;28;20044;-81
2022/05/05 13:48:10;;;;;;;7.20;2.75;;;18.60;99.90;;;;;;5074111;28;20045;-80